Time;durP1;ratioP1;P1;durP2;ratioP2;P2;SDS_P1;SDS_P2;PMS_P1;PMS_P2;Temp;Humidity;BMP_temperature;BMP_pressure;BME280_temperature;BME280_humidity;BME280_pressure;Samples;Min_cycle;Max_cycle;Signal;HPM_P1;HPM_P2
2020/12/08 00:00:57;;;;;;;6.70;5.10;;;26.80;90.60;;;;;;4968443;29;20034;-89
2020/12/08 00:03:25;;;;;;;4.55;3.40;;;26.90;90.00;;;;;;4969167;29;20031;-89
2020/12/08 00:05:52;;;;;;;5.10;2.83;;;27.00;90.40;;;;;;4952437;29;20053;-91
2020/12/08 00:08:19;;;;;;;4.25;2.95;;;27.00;90.00;;;;;;4966331;29;20095;-89
2020/12/08 00:10:45;;;;;;;3.90;1.98;;;27.00;90.10;;;;;;4968550;29;20079;-88
2020/12/08 00:13:19;;;;;;;3.28;2.25;;;26.90;89.70;;;;;;4966983;29;20086;-88
2020/12/08 00:15:48;;;;;;;4.97;2.08;;;26.90;89.00;;;;;;4968739;29;20019;-87
2020/12/08 00:18:18;;;;;;;3.35;2.15;;;26.90;90.00;;;;;;4975377;29;20031;-85
2020/12/08 00:20:48;;;;;;;6.00;4.47;;;26.90;89.70;;;;;;4967027;29;20039;-88
2020/12/08 00:23:18;;;;;;;21.88;19.90;;;27.00;90.10;;;;;;4968094;28;20043;-87
2020/12/08 00:25:46;;;;;;;13.63;9.52;;;26.90;90.00;;;;;;5285508;23;20060;-88
2020/12/08 00:28:13;;;;;;;9.00;8.10;;;26.80;90.10;;;;;;5010417;28;20038;-88
2020/12/08 00:30:46;;;;;;;18.65;17.05;;;26.90;89.90;;;;;;5027240;28;20104;-89
2020/12/08 00:33:54;;;;;;;9.45;8.55;;;26.90;89.60;;;;;;5013428;28;20074;-88
2020/12/08 00:36:30;;;;;;;12.65;11.45;;;26.90;90.20;;;;;;4934112;29;20036;-88
2020/12/08 00:39:04;;;;;;;10.35;9.20;;;27.00;89.30;;;;;;5317401;23;20046;-89
2020/12/08 00:41:32;;;;;;;8.20;7.25;;;27.00;89.70;;;;;;4955541;28;20035;-90
2020/12/08 00:43:58;;;;;;;11.27;10.23;;;27.00;89.50;;;;;;4971686;28;20045;-89
2020/12/08 00:46:32;;;;;;;16.38;14.85;;;27.00;89.30;;;;;;4974094;28;20082;-88
2020/12/08 00:49:01;;;;;;;8.30;7.57;;;27.10;89.50;;;;;;4988835;28;20031;-87
2020/12/08 00:51:30;;;;;;;7.85;7.03;;;27.00;89.30;;;;;;4973365;28;20046;-89
2020/12/08 00:53:57;;;;;;;13.82;12.57;;;27.00;89.70;;;;;;4973352;28;20145;-90
2020/12/08 00:56:23;;;;;;;14.65;13.05;;;27.00;89.30;;;;;;4988267;28;20034;-89
2020/12/08 00:59:03;;;;;;;10.85;7.88;;;27.10;89.90;;;;;;4974480;28;20054;-87
2020/12/08 01:01:45;;;;;;;7.10;6.43;;;27.10;89.60;;;;;;4988530;28;20023;-90
2020/12/08 01:04:14;;;;;;;12.80;9.95;;;27.00;89.60;;;;;;4976406;28;20039;-89
2020/12/08 01:06:43;;;;;;;7.55;6.28;;;26.90;88.80;;;;;;4974056;28;20023;-90
2020/12/08 01:09:10;;;;;;;7.00;6.22;;;26.90;89.50;;;;;;4974730;28;20050;-90
2020/12/08 01:11:50;;;;;;;9.00;8.15;;;26.80;89.10;;;;;;4991651;28;20227;-90
2020/12/08 01:14:35;;;;;;;5.20;4.70;;;26.80;89.10;;;;;;4973876;28;20144;-92
2020/12/08 01:17:04;;;;;;;4.57;3.90;;;26.80;88.90;;;;;;5141131;23;20026;-88
2020/12/08 01:19:36;;;;;;;5.22;3.58;;;26.80;89.20;;;;;;4975471;28;20109;-91
2020/12/08 01:22:02;;;;;;;8.45;5.13;;;26.80;89.20;;;;;;4990201;28;20310;-91
2020/12/08 01:24:32;;;;;;;5.40;3.80;;;26.80;89.00;;;;;;4989648;28;20109;-94
2020/12/08 01:26:58;;;;;;;5.75;3.58;;;26.70;88.50;;;;;;4988946;28;20030;-90
2020/12/08 01:29:25;;;;;;;6.25;3.88;;;26.60;89.50;;;;;;4988253;28;20026;-88
2020/12/08 01:32:13;;;;;;;6.53;3.20;;;26.60;88.70;;;;;;4988005;28;20262;-89
2020/12/08 01:34:45;;;;;;;4.40;3.10;;;26.50;89.40;;;;;;5005026;28;20085;-88
2020/12/08 01:37:13;;;;;;;5.38;3.05;;;26.40;88.90;;;;;;5006056;28;20089;-89
2020/12/08 01:39:42;;;;;;;4.60;2.67;;;26.30;88.90;;;;;;4972144;28;20041;-89
2020/12/08 01:42:09;;;;;;;4.05;2.72;;;26.30;89.00;;;;;;4988112;28;20037;-88
2020/12/08 01:44:36;;;;;;;3.55;2.50;;;26.20;88.20;;;;;;4988242;28;20038;-89
2020/12/08 01:47:06;;;;;;;2.72;2.30;;;26.10;89.40;;;;;;5004484;28;20120;-88
2020/12/08 01:49:33;;;;;;;4.30;2.92;;;26.10;88.70;;;;;;5004508;28;20076;-91
2020/12/08 01:52:03;;;;;;;5.13;3.25;;;26.10;88.50;;;;;;5009158;28;20041;-88
2020/12/08 01:54:30;;;;;;;5.18;3.45;;;26.20;88.80;;;;;;4991481;28;20110;-87
2020/12/08 01:56:58;;;;;;;3.53;2.70;;;26.10;88.40;;;;;;5006289;28;20093;-87
2020/12/08 01:59:25;;;;;;;2.05;1.45;;;26.00;88.90;;;;;;4989517;28;20034;-87
2020/12/08 02:04:34;;;;;;;7.45;4.00;;;26.00;89.20;;;;;;5138879;22;20403;-87
2020/12/08 02:07:01;;;;;;;4.95;4.35;;;26.00;89.00;;;;;;5007789;28;20041;-88
2020/12/08 02:09:28;;;;;;;6.93;5.30;;;26.00;88.70;;;;;;5024862;28;20030;-89
2020/12/08 02:11:59;;;;;;;6.75;5.80;;;26.00;88.50;;;;;;5026911;28;20037;-88
2020/12/08 02:14:29;;;;;;;9.18;6.88;;;26.00;89.10;;;;;;5009967;28;20033;-89
2020/12/08 02:17:03;;;;;;;8.98;5.90;;;26.00;89.10;;;;;;5028025;28;20029;-89
2020/12/08 02:19:38;;;;;;;7.80;4.93;;;25.90;89.20;;;;;;4994054;28;20096;-89
2020/12/08 02:22:04;;;;;;;5.78;3.92;;;25.90;89.50;;;;;;4997087;28;20101;-89
2020/12/08 02:24:52;;;;;;;4.70;3.55;;;25.90;89.70;;;;;;5014218;28;20041;-88
2020/12/08 02:27:42;;;;;;;4.35;1.90;;;25.90;89.40;;;;;;5035802;28;20026;-89
2020/12/08 02:30:15;;;;;;;4.85;2.42;;;25.80;89.60;;;;;;5028718;28;20306;-88
2020/12/08 02:32:43;;;;;;;2.35;1.77;;;25.80;89.40;;;;;;5026154;28;20037;-89
2020/12/08 02:35:10;;;;;;;1.95;1.27;;;25.80;89.80;;;;;;5007605;28;20026;-89
2020/12/08 02:37:44;;;;;;;1.38;1.05;;;25.80;89.70;;;;;;5007920;28;20056;-91
2020/12/08 02:40:11;;;;;;;1.35;1.13;;;25.70;90.10;;;;;;5007192;28;20059;-88
2020/12/08 02:42:37;;;;;;;1.45;0.90;;;25.70;90.10;;;;;;5006900;28;20053;-89
2020/12/08 02:45:04;;;;;;;2.58;1.10;;;25.60;90.00;;;;;;5006382;28;20044;-90
2020/12/08 02:47:32;;;;;;;3.05;1.92;;;25.60;90.50;;;;;;5010154;28;20030;-90
2020/12/08 02:49:58;;;;;;;4.65;3.35;;;25.60;90.20;;;;;;5010905;28;20274;-90
2020/12/08 02:52:27;;;;;;;2.63;1.90;;;25.60;90.40;;;;;;5010495;28;20036;-89
2020/12/08 02:54:54;;;;;;;2.78;2.05;;;25.60;90.10;;;;;;5010593;28;20068;-91
2020/12/08 02:57:27;;;;;;;3.78;2.13;;;25.60;90.20;;;;;;5010833;28;20049;-91
2020/12/08 02:59:54;;;;;;;6.82;5.78;;;25.50;90.20;;;;;;4998317;28;20109;-89
2020/12/08 03:02:21;;;;;;;2.55;2.10;;;25.60;90.50;;;;;;5013559;28;20037;-88
2020/12/08 03:04:55;;;;;;;2.47;1.23;;;25.60;90.10;;;;;;4997092;28;20053;-90
2020/12/08 03:07:25;;;;;;;20.75;14.02;;;25.60;90.00;;;;;;4979360;28;20025;-89
2020/12/08 03:10:08;;;;;;;3.67;2.40;;;25.50;90.40;;;;;;4976287;28;20033;-89
2020/12/08 03:12:36;;;;;;;2.88;2.08;;;25.60;90.30;;;;;;5008266;28;20049;-90
2020/12/08 03:15:15;;;;;;;2.20;1.60;;;25.50;90.30;;;;;;4990838;28;20061;-89
2020/12/08 03:17:44;;;;;;;3.85;1.50;;;25.50;90.30;;;;;;4992900;28;20035;-91
2020/12/08 03:20:11;;;;;;;3.13;1.90;;;25.40;90.30;;;;;;4992897;28;20030;-89
2020/12/08 03:22:44;;;;;;;2.70;1.10;;;25.50;90.20;;;;;;4975408;28;20056;-89
2020/12/08 03:25:12;;;;;;;2.72;2.30;;;25.50;90.50;;;;;;5008430;28;20099;-89
2020/12/08 03:27:39;;;;;;;2.88;2.60;;;25.50;90.70;;;;;;4992352;28;20038;-89
2020/12/08 03:30:08;;;;;;;3.88;3.20;;;25.40;90.40;;;;;;4991701;28;20030;-88
2020/12/08 03:32:40;;;;;;;4.55;2.92;;;25.40;90.70;;;;;;4991489;28;20057;-89
2020/12/08 03:35:09;;;;;;;3.28;1.85;;;25.30;90.60;;;;;;5010022;28;20021;-90
2020/12/08 03:37:36;;;;;;;1.30;1.10;;;25.30;90.70;;;;;;5093438;23;20059;-89
2020/12/08 03:40:06;;;;;;;1.52;1.15;;;25.30;90.40;;;;;;4991576;28;20092;-88
2020/12/08 03:42:32;;;;;;;1.70;1.20;;;25.30;90.50;;;;;;4994410;28;20085;-88
2020/12/08 03:44:59;;;;;;;2.30;1.20;;;25.30;90.40;;;;;;4991167;28;20034;-89
2020/12/08 03:47:26;;;;;;;3.00;0.60;;;25.30;90.30;;;;;;4992537;28;20036;-88
2020/12/08 03:49:52;;;;;;;0.70;0.70;;;25.30;90.40;;;;;;4993850;28;20030;-88
2020/12/08 03:52:20;;;;;;;2.55;1.15;;;25.20;90.20;;;;;;4993294;28;20073;-88
2020/12/08 03:54:46;;;;;;;2.20;1.50;;;25.20;90.50;;;;;;4990157;28;20034;-89
2020/12/08 03:57:15;;;;;;;2.72;1.40;;;25.20;91.00;;;;;;4993099;28;20045;-90
2020/12/08 03:59:41;;;;;;;1.58;0.90;;;25.20;91.50;;;;;;4990170;28;20037;-88
2020/12/08 04:02:08;;;;;;;0.82;0.80;;;25.10;91.80;;;;;;5007304;28;20033;-89
2020/12/08 04:04:35;;;;;;;1.00;0.80;;;25.10;92.00;;;;;;5006559;28;20077;-90
2020/12/08 04:07:02;;;;;;;0.70;0.70;;;25.00;92.00;;;;;;5172086;23;20062;-89
2020/12/08 04:09:29;;;;;;;1.45;0.80;;;25.00;92.10;;;;;;4946306;28;20035;-88
2020/12/08 04:11:56;;;;;;;1.25;0.85;;;24.90;92.20;;;;;;4970115;28;20042;-88
2020/12/08 04:14:22;;;;;;;1.60;1.00;;;24.90;91.60;;;;;;4969739;28;20041;-87
2020/12/08 04:16:49;;;;;;;1.10;0.60;;;24.90;91.60;;;;;;4969105;28;20337;-87
2020/12/08 04:19:16;;;;;;;0.77;0.50;;;25.00;90.80;;;;;;4969672;28;20034;-87
2020/12/08 04:21:43;;;;;;;1.33;0.70;;;25.00;90.20;;;;;;4953489;28;20037;-87
2020/12/08 04:24:10;;;;;;;0.65;0.50;;;25.10;89.70;;;;;;4986751;28;20027;-88
2020/12/08 04:26:38;;;;;;;0.70;0.60;;;25.10;89.20;;;;;;4987810;28;20042;-87
2020/12/08 04:29:04;;;;;;;0.80;0.60;;;25.10;88.90;;;;;;4985745;28;20330;-89
2020/12/08 04:31:34;;;;;;;2.30;0.47;;;25.20;89.50;;;;;;4990744;28;20042;-88
2020/12/08 04:34:01;;;;;;;4.43;0.50;;;25.30;88.80;;;;;;4999624;28;20039;-87
2020/12/08 04:36:28;;;;;;;0.80;0.60;;;25.30;88.70;;;;;;4981082;28;20042;-88
2020/12/08 04:38:55;;;;;;;1.40;0.40;;;25.30;87.70;;;;;;4997870;28;20042;-89
2020/12/08 04:41:23;;;;;;;1.10;0.90;;;25.30;87.70;;;;;;4999971;28;20022;-89
2020/12/08 04:43:51;;;;;;;0.80;0.80;;;25.30;87.80;;;;;;4999877;28;20095;-88
2020/12/08 04:46:26;;;;;;;3.10;1.92;;;25.30;87.70;;;;;;4998771;28;20039;-90
2020/12/08 04:48:56;;;;;;;7.07;4.90;;;25.30;87.80;;;;;;4979041;28;20062;-88
2020/12/08 04:51:22;;;;;;;5.07;3.70;;;25.30;88.20;;;;;;4979736;28;20037;-87
2020/12/08 04:53:53;;;;;;;7.88;4.70;;;25.20;88.50;;;;;;4978695;28;20039;-88
2020/12/08 04:56:21;;;;;;;2.80;1.58;;;25.30;88.20;;;;;;4975413;28;20283;-87
2020/12/08 04:58:48;;;;;;;2.15;0.85;;;25.30;88.60;;;;;;4969045;28;20037;-87
2020/12/08 05:01:25;;;;;;;1.67;0.82;;;25.20;88.70;;;;;;4953758;28;20037;-89
2020/12/08 05:04:02;;;;;;;3.35;1.08;;;25.20;88.90;;;;;;4986597;28;20027;-88
2020/12/08 05:06:30;;;;;;;2.55;1.42;;;25.20;88.70;;;;;;4986093;28;20022;-88
2020/12/08 05:09:05;;;;;;;2.55;1.27;;;25.20;88.40;;;;;;5001664;28;20050;-88
2020/12/08 05:11:32;;;;;;;1.17;1.00;;;25.20;88.20;;;;;;4987732;28;20038;-88
2020/12/08 05:14:06;;;;;;;1.95;0.80;;;25.20;88.40;;;;;;5005108;28;20054;-88
2020/12/08 05:16:41;;;;;;;0.65;0.60;;;25.20;88.50;;;;;;4988119;28;20029;-88
2020/12/08 05:19:11;;;;;;;0.98;0.60;;;25.20;88.50;;;;;;4987553;28;20031;-87
2020/12/08 05:21:51;;;;;;;0.65;0.50;;;25.10;88.10;;;;;;5005297;28;20027;-88
2020/12/08 05:24:27;;;;;;;0.90;0.70;;;25.10;88.10;;;;;;5004840;28;20046;-88
2020/12/08 05:26:58;;;;;;;0.70;0.60;;;25.10;88.30;;;;;;5005324;28;20337;-88
2020/12/08 05:29:25;;;;;;;2.45;0.60;;;25.10;88.20;;;;;;5004778;28;20068;-88
2020/12/08 05:31:53;;;;;;;2.15;0.65;;;25.10;88.60;;;;;;5004867;28;20026;-89
2020/12/08 05:34:21;;;;;;;2.67;0.60;;;25.10;88.90;;;;;;4987344;28;20072;-88
2020/12/08 05:36:50;;;;;;;1.00;0.40;;;25.00;88.50;;;;;;4988065;28;20099;-88
2020/12/08 05:39:18;;;;;;;0.90;0.70;;;24.90;89.10;;;;;;4988086;28;20121;-89
2020/12/08 05:41:46;;;;;;;0.30;0.30;;;24.90;89.90;;;;;;5004883;28;20022;-89
2020/12/08 05:44:23;;;;;;;1.02;0.65;;;24.90;89.50;;;;;;5004364;28;20145;-88
2020/12/08 05:46:51;;;;;;;1.17;0.60;;;24.90;89.40;;;;;;4987010;28;20218;-87
2020/12/08 05:49:19;;;;;;;0.75;0.52;;;24.90;89.60;;;;;;5004469;28;20057;-88
2020/12/08 05:51:51;;;;;;;0.75;0.50;;;24.90;89.40;;;;;;4987037;28;20041;-88
2020/12/08 05:54:21;;;;;;;0.80;0.40;;;24.90;89.30;;;;;;5004623;28;20109;-88
2020/12/08 05:56:50;;;;;;;1.30;0.60;;;24.80;89.60;;;;;;5004562;28;20026;-89
2020/12/08 05:59:30;;;;;;;1.90;0.63;;;24.80;90.00;;;;;;4987006;28;20062;-88
2020/12/08 06:01:56;;;;;;;0.40;0.40;;;24.80;90.00;;;;;;5004420;28;20026;-89
2020/12/08 06:04:23;;;;;;;0.50;0.50;;;24.80;89.70;;;;;;4987577;28;20030;-88
2020/12/08 06:06:56;;;;;;;0.63;0.50;;;24.80;89.60;;;;;;5004522;28;20026;-89
2020/12/08 06:09:24;;;;;;;0.43;0.43;;;24.80;89.60;;;;;;5004071;28;20050;-88
2020/12/08 06:11:51;;;;;;;0.68;0.50;;;24.80;89.50;;;;;;4986939;28;20034;-88
2020/12/08 06:14:37;;;;;;;0.70;0.50;;;24.80;89.40;;;;;;5004270;28;20045;-87
2020/12/08 06:17:06;;;;;;;0.90;0.50;;;24.80;89.70;;;;;;4987403;28;20031;-88
2020/12/08 06:19:36;;;;;;;0.50;0.50;;;24.80;90.00;;;;;;4988140;28;20031;-87
2020/12/08 06:22:14;;;;;;;0.55;0.40;;;24.80;90.00;;;;;;4991146;28;20262;-88
2020/12/08 06:24:52;;;;;;;1.17;0.70;;;24.80;90.00;;;;;;5008438;28;20048;-89
2020/12/08 06:27:23;;;;;;;1.73;0.50;;;24.80;89.80;;;;;;4990791;28;20034;-88
2020/12/08 06:29:56;;;;;;;0.98;0.57;;;24.80;89.90;;;;;;5007657;28;20111;-88
2020/12/08 06:32:33;;;;;;;0.60;0.50;;;24.70;89.80;;;;;;5008250;28;20105;-87
2020/12/08 06:35:14;;;;;;;4.78;0.60;;;24.70;90.10;;;;;;4990591;28;20195;-87
2020/12/08 06:37:53;;;;;;;0.50;0.50;;;24.60;90.10;;;;;;4990625;28;20034;-87
2020/12/08 06:40:26;;;;;;;1.27;0.50;;;24.60;90.00;;;;;;5007962;28;20078;-88
2020/12/08 06:42:52;;;;;;;;;;;24.70;90.10;;;;;;4991118;28;20307;-89
2020/12/08 06:45:23;;;;;;;1.00;0.70;;;24.70;90.20;;;;;;5007845;28;20195;-89
2020/12/08 06:47:51;;;;;;;1.85;0.60;;;24.60;90.30;;;;;;4990537;28;20037;-88
2020/12/08 06:50:32;;;;;;;0.77;0.50;;;24.60;90.30;;;;;;5007383;28;20068;-88
2020/12/08 06:53:01;;;;;;;1.40;0.82;;;24.60;90.10;;;;;;4990459;28;20038;-88
2020/12/08 06:55:29;;;;;;;0.90;0.80;;;24.60;90.30;;;;;;4990287;28;20053;-88
2020/12/08 06:58:06;;;;;;;1.30;0.50;;;24.60;90.20;;;;;;5008036;28;20037;-88
2020/12/08 07:00:33;;;;;;;1.02;0.63;;;24.60;90.30;;;;;;5007632;28;20035;-88
2020/12/08 07:03:01;;;;;;;0.82;0.60;;;24.60;90.40;;;;;;4990248;28;20030;-88
2020/12/08 07:05:30;;;;;;;3.13;0.82;;;24.60;90.20;;;;;;4982125;28;20038;-88
2020/12/08 07:08:04;;;;;;;1.30;0.55;;;24.60;90.30;;;;;;5007485;28;20118;-88
2020/12/08 07:10:39;;;;;;;1.65;0.70;;;24.60;90.10;;;;;;4989467;28;20038;-88
2020/12/08 07:13:16;;;;;;;2.42;0.90;;;24.60;90.30;;;;;;4990105;28;20030;-88
2020/12/08 07:15:46;;;;;;;1.48;0.55;;;24.60;90.20;;;;;;4989789;28;20246;-88
2020/12/08 07:18:13;;;;;;;1.20;0.68;;;24.60;90.00;;;;;;4989794;28;20322;-88
2020/12/08 07:20:42;;;;;;;1.27;0.57;;;24.60;90.20;;;;;;4989850;28;20053;-88
2020/12/08 07:23:11;;;;;;;0.70;0.57;;;24.60;90.30;;;;;;4989891;28;20038;-88
2020/12/08 07:25:38;;;;;;;0.80;0.50;;;24.60;90.60;;;;;;4989740;28;20216;-88
2020/12/08 07:28:05;;;;;;;0.95;0.50;;;24.50;90.60;;;;;;4989909;28;20207;-88
2020/12/08 07:30:32;;;;;;;1.13;0.43;;;24.50;90.70;;;;;;4989549;28;20330;-88
2020/12/08 07:33:09;;;;;;;2.20;0.50;;;24.40;90.90;;;;;;4988753;28;20322;-88
2020/12/08 07:35:38;;;;;;;1.10;0.50;;;24.30;91.10;;;;;;4989416;28;20280;-88
2020/12/08 07:38:05;;;;;;;1.13;0.85;;;24.40;91.00;;;;;;4989601;28;20255;-87
2020/12/08 07:40:40;;;;;;;1.35;0.50;;;24.30;91.00;;;;;;4989506;28;20323;-88
2020/12/08 07:43:06;;;;;;;1.38;0.52;;;24.40;91.00;;;;;;4990095;28;20045;-87
2020/12/08 07:45:41;;;;;;;0.70;0.40;;;24.40;91.00;;;;;;4989386;28;20034;-87
2020/12/08 07:48:12;;;;;;;1.65;0.60;;;24.40;91.30;;;;;;4989412;28;20030;-88
2020/12/08 07:50:38;;;;;;;2.00;0.70;;;24.40;91.30;;;;;;5006692;28;20053;-87
2020/12/08 07:53:07;;;;;;;1.40;0.70;;;24.40;91.20;;;;;;4989429;28;20100;-88
2020/12/08 07:55:41;;;;;;;2.28;0.73;;;24.50;91.30;;;;;;4989120;28;20085;-88
2020/12/08 07:58:08;;;;;;;0.88;0.80;;;24.50;91.10;;;;;;5007004;28;20314;-88
2020/12/08 08:00:35;;;;;;;1.17;0.60;;;24.50;91.10;;;;;;4989105;28;20030;-88
2020/12/08 08:03:02;;;;;;;1.65;0.50;;;24.50;91.30;;;;;;4989044;28;20345;-89
2020/12/08 08:05:29;;;;;;;1.77;0.60;;;24.60;91.00;;;;;;5006432;28;20102;-89
2020/12/08 08:07:56;;;;;;;1.80;0.75;;;24.60;91.20;;;;;;4988945;28;20046;-89
2020/12/08 08:10:23;;;;;;;0.63;0.50;;;24.60;91.20;;;;;;4988768;28;20030;-89
2020/12/08 08:12:50;;;;;;;2.30;0.43;;;24.70;91.30;;;;;;4988995;28;20057;-88
2020/12/08 08:15:16;;;;;;;0.63;0.47;;;24.70;91.40;;;;;;5006160;28;20046;-88
2020/12/08 08:17:43;;;;;;;0.63;0.52;;;24.70;91.30;;;;;;5006403;28;20061;-88
2020/12/08 08:20:09;;;;;;;0.95;0.50;;;24.70;91.30;;;;;;4988744;28;20101;-89
2020/12/08 08:22:36;;;;;;;0.60;0.60;;;24.80;91.40;;;;;;4988833;28;20109;-88
2020/12/08 08:25:04;;;;;;;3.38;0.55;;;24.70;91.70;;;;;;5005990;28;20053;-88
2020/12/08 08:27:31;;;;;;;0.73;0.50;;;24.60;91.60;;;;;;5006324;28;20093;-89
2020/12/08 08:29:57;;;;;;;2.05;0.90;;;24.60;91.90;;;;;;4988621;28;20105;-89
2020/12/08 08:32:24;;;;;;;0.57;0.45;;;24.50;92.30;;;;;;4988724;28;20034;-88
2020/12/08 08:34:50;;;;;;;2.35;0.50;;;24.50;91.80;;;;;;5005910;28;20037;-89
2020/12/08 08:37:17;;;;;;;0.50;0.50;;;24.40;92.30;;;;;;4988655;28;20034;-89
2020/12/08 08:39:44;;;;;;;1.60;0.90;;;24.40;92.50;;;;;;4988281;28;20099;-89
2020/12/08 08:42:10;;;;;;;1.58;0.70;;;24.40;92.70;;;;;;4988421;28;20348;-89
2020/12/08 08:44:37;;;;;;;1.20;0.75;;;24.40;92.80;;;;;;4987549;28;20042;-89
2020/12/08 08:47:04;;;;;;;0.85;0.60;;;24.40;93.00;;;;;;5005962;28;20030;-88
2020/12/08 08:49:30;;;;;;;1.33;0.63;;;24.50;92.80;;;;;;4988197;28;20042;-88
2020/12/08 08:51:57;;;;;;;0.88;0.60;;;24.60;92.70;;;;;;4988185;28;20203;-89
2020/12/08 08:54:23;;;;;;;1.50;0.70;;;24.60;92.90;;;;;;5005528;28;20034;-89
2020/12/08 08:56:55;;;;;;;0.60;0.50;;;24.60;92.80;;;;;;5005486;28;20081;-88
2020/12/08 08:59:22;;;;;;;1.23;0.63;;;24.60;92.80;;;;;;4988073;28;20109;-88
2020/12/08 09:01:48;;;;;;;1.58;0.80;;;24.60;92.70;;;;;;5005576;28;20033;-89
2020/12/08 09:04:15;;;;;;;0.70;0.60;;;24.60;92.70;;;;;;4987931;28;20077;-89
2020/12/08 09:06:42;;;;;;;1.70;0.63;;;24.60;92.70;;;;;;5005368;28;20070;-89
2020/12/08 09:09:08;;;;;;;0.50;0.50;;;24.60;92.70;;;;;;4987716;28;20267;-89
2020/12/08 09:11:35;;;;;;;3.70;0.65;;;24.60;92.80;;;;;;4987862;28;20026;-88
2020/12/08 09:14:01;;;;;;;1.95;0.77;;;24.60;92.70;;;;;;5005111;28;20097;-87
2020/12/08 09:16:28;;;;;;;1.15;0.70;;;24.50;92.70;;;;;;4987748;28;20030;-88
2020/12/08 09:18:55;;;;;;;0.57;0.55;;;24.50;92.70;;;;;;5004933;28;20027;-88
2020/12/08 09:21:21;;;;;;;0.93;0.70;;;24.50;92.80;;;;;;4988674;28;20242;-88
2020/12/08 09:23:48;;;;;;;0.65;0.65;;;24.50;92.70;;;;;;5005773;28;20042;-88
2020/12/08 09:26:14;;;;;;;1.20;0.80;;;24.40;92.70;;;;;;5005068;28;20027;-88
2020/12/08 09:28:42;;;;;;;1.08;0.57;;;24.50;92.70;;;;;;5005233;28;20030;-88
2020/12/08 09:31:09;;;;;;;1.17;0.47;;;24.50;92.80;;;;;;4989600;28;20101;-87
2020/12/08 09:33:38;;;;;;;1.88;0.90;;;24.40;92.60;;;;;;4988770;28;20041;-88
2020/12/08 09:36:04;;;;;;;1.52;0.82;;;24.40;92.90;;;;;;5005513;28;20022;-88
2020/12/08 09:38:31;;;;;;;1.27;0.50;;;24.30;92.80;;;;;;5007699;28;20069;-89
2020/12/08 09:40:58;;;;;;;1.13;0.63;;;24.30;92.90;;;;;;4987474;28;20022;-88
2020/12/08 09:43:25;;;;;;;0.68;0.60;;;24.30;93.00;;;;;;4987569;28;20045;-88
2020/12/08 09:45:51;;;;;;;0.85;0.70;;;24.30;92.90;;;;;;5005549;28;20392;-89
2020/12/08 09:48:18;;;;;;;1.60;0.68;;;24.20;92.90;;;;;;4987300;28;20081;-88
2020/12/08 09:50:45;;;;;;;0.85;0.60;;;24.30;92.90;;;;;;4987147;28;20095;-88
2020/12/08 09:53:11;;;;;;;0.90;0.40;;;24.20;92.90;;;;;;4987989;28;20033;-89
2020/12/08 09:55:38;;;;;;;0.80;0.60;;;24.20;92.70;;;;;;4989455;28;20030;-89
2020/12/08 09:58:04;;;;;;;0.73;0.60;;;24.20;92.70;;;;;;4987496;28;20033;-89
2020/12/08 10:00:31;;;;;;;2.72;0.82;;;24.20;92.50;;;;;;5006658;28;20031;-89
2020/12/08 10:03:11;;;;;;;1.13;0.75;;;24.20;92.30;;;;;;4990593;28;20030;-88
2020/12/08 10:08:27;;;;;;;3.97;0.90;;;24.10;92.10;;;;;;5008104;28;20058;-86
2020/12/08 10:10:53;;;;;;;4.75;1.20;;;23.90;92.00;;;;;;5005444;28;20037;-86
2020/12/08 10:13:20;;;;;;;4.20;1.20;;;24.00;92.00;;;;;;4987271;28;20105;-89
2020/12/08 10:15:46;;;;;;;4.18;0.90;;;24.00;92.00;;;;;;5004310;28;20037;-86
2020/12/08 10:18:13;;;;;;;4.05;1.00;;;24.00;91.80;;;;;;4986986;28;20033;-88
2020/12/08 10:20:40;;;;;;;1.80;0.68;;;24.00;91.90;;;;;;5004443;28;20059;-88
2020/12/08 10:23:06;;;;;;;2.95;1.27;;;24.00;91.90;;;;;;4990415;28;20036;-88
2020/12/08 10:25:35;;;;;;;3.25;0.98;;;23.90;92.10;;;;;;4990111;28;20034;-88
2020/12/08 10:28:02;;;;;;;2.40;0.77;;;23.90;92.10;;;;;;4989546;28;20022;-88
2020/12/08 10:30:52;;;;;;;2.05;0.73;;;23.90;92.10;;;;;;4989530;28;20046;-87
2020/12/08 10:33:19;;;;;;;1.40;0.60;;;23.90;92.30;;;;;;4990916;28;20222;-89
2020/12/08 10:35:46;;;;;;;0.70;0.52;;;23.90;92.20;;;;;;4990075;28;20053;-89
2020/12/08 10:38:14;;;;;;;2.63;0.60;;;23.90;92.20;;;;;;4976757;28;20058;-88
2020/12/08 10:40:42;;;;;;;1.30;0.60;;;23.90;92.40;;;;;;4970670;28;20039;-86
2020/12/08 10:43:09;;;;;;;1.95;0.70;;;23.90;92.30;;;;;;4987050;28;20030;-90
2020/12/08 10:45:36;;;;;;;1.08;0.70;;;23.90;92.50;;;;;;4967701;28;20121;-89
2020/12/08 10:48:03;;;;;;;2.30;0.77;;;23.90;92.50;;;;;;4968109;28;20030;-88
2020/12/08 10:50:29;;;;;;;2.55;1.02;;;23.90;92.40;;;;;;4986235;28;20176;-88
2020/12/08 10:52:56;;;;;;;1.45;0.85;;;24.00;92.60;;;;;;4968107;28;20031;-88
2020/12/08 10:55:24;;;;;;;2.35;1.10;;;23.90;92.50;;;;;;4969106;28;20311;-89
2020/12/08 10:57:51;;;;;;;1.92;1.00;;;23.90;92.60;;;;;;4984291;28;20030;-91
2020/12/08 11:00:17;;;;;;;1.20;1.08;;;23.90;92.70;;;;;;4988114;28;20034;-89
2020/12/08 11:02:44;;;;;;;1.73;0.98;;;23.90;92.70;;;;;;4985016;28;20227;-90
2020/12/08 11:05:14;;;;;;;1.85;1.45;;;23.90;92.80;;;;;;4968284;28;20045;-91
2020/12/08 11:07:40;;;;;;;5.13;1.98;;;24.00;92.80;;;;;;4972047;28;20064;-90
2020/12/08 11:10:07;;;;;;;1.38;1.00;;;24.00;92.80;;;;;;4973977;28;20031;-90
2020/12/08 11:12:34;;;;;;;3.28;1.15;;;24.10;92.70;;;;;;4988572;28;20037;-91
2020/12/08 11:15:08;;;;;;;1.58;1.00;;;24.10;92.70;;;;;;4990306;28;20107;-90
2020/12/08 11:17:36;;;;;;;4.50;1.40;;;24.20;92.30;;;;;;4991834;28;20026;-90
2020/12/08 11:20:12;;;;;;;3.95;1.50;;;24.20;92.20;;;;;;4973821;28;20047;-90
2020/12/08 11:22:38;;;;;;;4.95;1.67;;;24.20;91.90;;;;;;4972452;28;20050;-92
2020/12/08 11:25:05;;;;;;;4.53;1.55;;;24.30;91.40;;;;;;4973576;28;20035;-92
2020/12/08 11:27:33;;;;;;;4.32;1.10;;;24.30;91.10;;;;;;4971987;28;20219;-90
2020/12/08 11:30:00;;;;;;;3.95;1.73;;;24.50;91.20;;;;;;4973480;28;20034;-89
2020/12/08 11:32:27;;;;;;;4.10;1.85;;;24.60;91.20;;;;;;4971643;28;20085;-90
2020/12/08 11:34:53;;;;;;;2.05;1.17;;;24.80;91.10;;;;;;4992551;28;20042;-90
2020/12/08 11:37:20;;;;;;;1.67;1.45;;;24.90;90.80;;;;;;4970539;28;20033;-91
2020/12/08 11:39:47;;;;;;;2.33;1.20;;;25.00;90.60;;;;;;4972592;28;20114;-91
2020/12/08 11:42:14;;;;;;;2.75;1.20;;;25.20;90.00;;;;;;4971783;28;20098;-90
2020/12/08 11:44:43;;;;;;;2.05;0.95;;;25.30;90.20;;;;;;4988648;28;20326;-91
2020/12/08 11:47:10;;;;;;;1.02;0.90;;;25.40;89.60;;;;;;4970801;28;20031;-91
2020/12/08 11:49:37;;;;;;;3.47;1.00;;;25.40;89.70;;;;;;4970028;28;20062;-91
2020/12/08 11:52:05;;;;;;;2.05;1.20;;;25.60;89.80;;;;;;4969925;28;20034;-91
2020/12/08 11:54:38;;;;;;;2.20;1.13;;;25.60;87.70;;;;;;4972784;28;20062;-90
2020/12/08 11:57:05;;;;;;;2.22;1.10;;;25.60;88.50;;;;;;4976514;28;20046;-89
2020/12/08 12:00:23;;;;;;;3.75;1.50;;;25.60;89.30;;;;;;4977318;28;20046;-92
2020/12/08 12:02:54;;;;;;;3.13;1.45;;;25.60;88.20;;;;;;4993514;28;20311;-89
2020/12/08 12:05:30;;;;;;;2.25;1.17;;;25.60;88.20;;;;;;4973659;28;20053;-89
2020/12/08 12:07:57;;;;;;;2.53;0.80;;;25.80;88.10;;;;;;4990140;28;20059;-88
2020/12/08 12:10:24;;;;;;;1.75;1.27;;;25.80;88.60;;;;;;4972031;28;20035;-87
2020/12/08 12:12:50;;;;;;;1.42;1.10;;;25.80;88.70;;;;;;4989690;28;20055;-88
2020/12/08 12:15:20;;;;;;;2.38;0.90;;;25.90;88.90;;;;;;4991417;28;20374;-88
2020/12/08 12:17:47;;;;;;;0.73;0.73;;;26.00;88.70;;;;;;4974379;28;20038;-87
2020/12/08 12:20:16;;;;;;;1.75;0.95;;;26.00;88.00;;;;;;4974202;28;20058;-87
2020/12/08 12:22:44;;;;;;;2.05;1.50;;;26.20;88.50;;;;;;4975151;28;20058;-86
2020/12/08 12:25:11;;;;;;;3.10;1.23;;;26.30;88.50;;;;;;4958612;28;20130;-87
2020/12/08 12:27:37;;;;;;;2.05;1.08;;;26.30;87.70;;;;;;4970499;28;20043;-86
2020/12/08 12:30:04;;;;;;;1.42;1.13;;;26.40;88.10;;;;;;4970741;28;20058;-87
2020/12/08 12:32:34;;;;;;;1.50;0.90;;;26.50;87.20;;;;;;4970061;28;20230;-87
2020/12/08 12:35:01;;;;;;;1.15;0.90;;;26.60;87.00;;;;;;4970008;28;20058;-88
2020/12/08 12:37:31;;;;;;;1.80;1.00;;;26.70;86.90;;;;;;4970504;28;20023;-88
2020/12/08 12:39:59;;;;;;;1.48;0.90;;;26.80;87.70;;;;;;4969917;28;20062;-87
2020/12/08 12:42:27;;;;;;;1.33;0.90;;;26.90;86.70;;;;;;4972348;28;20031;-88
2020/12/08 12:44:57;;;;;;;1.15;0.80;;;27.00;86.90;;;;;;4971008;28;20046;-88
2020/12/08 12:47:24;;;;;;;1.52;1.10;;;27.10;85.90;;;;;;4971474;28;20045;-89
2020/12/08 12:49:53;;;;;;;2.45;1.00;;;27.10;86.80;;;;;;4993783;28;20042;-88
2020/12/08 12:52:19;;;;;;;2.25;1.33;;;27.10;86.50;;;;;;4971802;28;20034;-89
2020/12/08 12:54:47;;;;;;;1.20;0.90;;;27.20;86.80;;;;;;4970026;28;20338;-87
2020/12/08 12:57:19;;;;;;;2.13;0.75;;;27.30;86.40;;;;;;4987378;28;20216;-87
2020/12/08 12:59:46;;;;;;;1.00;0.63;;;27.40;86.90;;;;;;4968931;28;20031;-88
2020/12/08 13:02:13;;;;;;;1.23;0.93;;;27.50;85.40;;;;;;4969835;28;20262;-88